Terminal Aerodrome Forecast
Issued by NWS Bismarck, ND

Home | Current Version | Previous Version | Text Only | Print | Product List | Glossary Off
Versions: 1 2 3 4 5 6 7 8 9 10 11 12 13 14

997
FTUS43 KBIS 201702 AAB
TAFBIS
TAF AMD
KBIS 201702Z 2017/2112 31010KT P6SM SCT015 SCT020 SCT100
     FM202000 30012G18KT P6SM SCT040 BKN070
     FM210100 27006KT P6SM SCT200=

USA.gov is the U.S. government's official web portal to all federal, state and local government web resources and services.